sensor_id;sensor_type;location;lat;lon;timestamp;P1;durP1;ratioP1;P2;durP2;ratioP2
59854;SDS011;45732;52.850;6.896;2022-11-23T00:01:34;18.42;;;14.45;;
59854;SDS011;45732;52.850;6.896;2022-11-23T00:04:05;18.90;;;14.45;;
59854;SDS011;45732;52.850;6.896;2022-11-23T00:06:33;19.38;;;15.18;;
59854;SDS011;45732;52.850;6.896;2022-11-23T00:08:59;18.10;;;14.18;;
59854;SDS011;45732;52.850;6.896;2022-11-23T00:11:25;20.00;;;14.57;;
59854;SDS011;45732;52.850;6.896;2022-11-23T00:13:52;17.80;;;13.57;;
59854;SDS011;45732;52.850;6.896;2022-11-23T00:16:20;18.42;;;14.77;;
59854;SDS011;45732;52.850;6.896;2022-11-23T00:18:57;17.73;;;15.30;;
59854;SDS011;45732;52.850;6.896;2022-11-23T00:21:24;15.00;;;13.02;;
59854;SDS011;45732;52.850;6.896;2022-11-23T00:23:51;21.25;;;15.55;;
59854;SDS011;45732;52.850;6.896;2022-11-23T00:26:17;16.30;;;12.77;;
59854;SDS011;45732;52.850;6.896;2022-11-23T00:28:44;18.23;;;14.60;;
59854;SDS011;45732;52.850;6.896;2022-11-23T00:31:10;18.27;;;15.13;;
59854;SDS011;45732;52.850;6.896;2022-11-23T00:33:38;17.70;;;13.63;;
59854;SDS011;45732;52.850;6.896;2022-11-23T00:36:12;17.02;;;13.93;;
59854;SDS011;45732;52.850;6.896;2022-11-23T00:38:39;17.50;;;13.52;;
59854;SDS011;45732;52.850;6.896;2022-11-23T00:41:07;18.52;;;14.13;;
59854;SDS011;45732;52.850;6.896;2022-11-23T00:43:34;18.35;;;14.45;;
59854;SDS011;45732;52.850;6.896;2022-11-23T00:46:22;21.30;;;14.77;;
59854;SDS011;45732;52.850;6.896;2022-11-23T00:48:50;19.27;;;13.65;;
59854;SDS011;45732;52.850;6.896;2022-11-23T00:51:18;19.85;;;13.93;;
59854;SDS011;45732;52.850;6.896;2022-11-23T00:53:51;20.00;;;14.23;;
59854;SDS011;45732;52.850;6.896;2022-11-23T00:56:19;19.98;;;14.57;;
59854;SDS011;45732;52.850;6.896;2022-11-23T00:58:48;19.40;;;13.80;;
59854;SDS011;45732;52.850;6.896;2022-11-23T01:01:15;17.75;;;13.60;;
59854;SDS011;45732;52.850;6.896;2022-11-23T01:03:43;19.42;;;14.20;;
59854;SDS011;45732;52.850;6.896;2022-11-23T01:06:15;18.17;;;14.15;;
59854;SDS011;45732;52.850;6.896;2022-11-23T01:08:49;19.05;;;13.45;;
59854;SDS011;45732;52.850;6.896;2022-11-23T01:11:19;17.48;;;13.18;;
59854;SDS011;45732;52.850;6.896;2022-11-23T01:13:45;14.65;;;11.95;;
59854;SDS011;45732;52.850;6.896;2022-11-23T01:16:15;18.25;;;13.88;;
59854;SDS011;45732;52.850;6.896;2022-11-23T01:18:46;16.33;;;12.90;;
59854;SDS011;45732;52.850;6.896;2022-11-23T01:21:12;18.73;;;12.55;;
59854;SDS011;45732;52.850;6.896;2022-11-23T01:23:38;18.55;;;12.35;;
59854;SDS011;45732;52.850;6.896;2022-11-23T01:26:04;18.52;;;14.45;;
59854;SDS011;45732;52.850;6.896;2022-11-23T01:28:32;17.42;;;12.88;;
59854;SDS011;45732;52.850;6.896;2022-11-23T01:33:32;17.90;;;12.80;;
59854;SDS011;45732;52.850;6.896;2022-11-23T01:35:58;20.02;;;13.60;;
59854;SDS011;45732;52.850;6.896;2022-11-23T01:38:24;16.80;;;13.98;;
59854;SDS011;45732;52.850;6.896;2022-11-23T01:40:50;16.83;;;14.07;;
59854;SDS011;45732;52.850;6.896;2022-11-23T01:43:16;16.15;;;13.02;;
59854;SDS011;45732;52.850;6.896;2022-11-23T01:46:03;18.05;;;13.93;;
59854;SDS011;45732;52.850;6.896;2022-11-23T01:48:31;18.08;;;14.57;;
59854;SDS011;45732;52.850;6.896;2022-11-23T01:51:20;18.45;;;14.60;;
59854;SDS011;45732;52.850;6.896;2022-11-23T01:53:50;21.23;;;14.02;;
59854;SDS011;45732;52.850;6.896;2022-11-23T01:56:19;17.10;;;14.18;;
59854;SDS011;45732;52.850;6.896;2022-11-23T01:58:49;18.15;;;14.45;;
59854;SDS011;45732;52.850;6.896;2022-11-23T02:01:18;16.38;;;13.77;;
59854;SDS011;45732;52.850;6.896;2022-11-23T02:03:45;19.80;;;14.90;;
59854;SDS011;45732;52.850;6.896;2022-11-23T02:06:16;17.33;;;13.70;;
59854;SDS011;45732;52.850;6.896;2022-11-23T02:08:43;18.30;;;14.18;;
59854;SDS011;45732;52.850;6.896;2022-11-23T02:11:10;17.40;;;13.65;;
59854;SDS011;45732;52.850;6.896;2022-11-23T02:13:37;16.33;;;13.77;;
59854;SDS011;45732;52.850;6.896;2022-11-23T02:16:03;17.50;;;14.15;;
59854;SDS011;45732;52.850;6.896;2022-11-23T02:18:30;16.90;;;13.68;;
59854;SDS011;45732;52.850;6.896;2022-11-23T02:20:58;19.70;;;15.05;;
59854;SDS011;45732;52.850;6.896;2022-11-23T02:26:23;18.80;;;14.45;;
59854;SDS011;45732;52.850;6.896;2022-11-23T02:31:23;17.25;;;13.82;;
59854;SDS011;45732;52.850;6.896;2022-11-23T02:33:48;19.08;;;14.45;;
59854;SDS011;45732;52.850;6.896;2022-11-23T02:38:46;17.77;;;14.77;;
59854;SDS011;45732;52.850;6.896;2022-11-23T02:41:12;16.88;;;13.88;;
59854;SDS011;45732;52.850;6.896;2022-11-23T02:43:37;18.35;;;14.18;;
59854;SDS011;45732;52.850;6.896;2022-11-23T02:46:03;16.95;;;13.75;;
59854;SDS011;45732;52.850;6.896;2022-11-23T02:48:29;18.70;;;13.73;;
59854;SDS011;45732;52.850;6.896;2022-11-23T02:50:55;15.98;;;13.27;;
59854;SDS011;45732;52.850;6.896;2022-11-23T02:53:20;17.40;;;13.65;;
59854;SDS011;45732;52.850;6.896;2022-11-23T02:55:47;16.40;;;13.13;;
59854;SDS011;45732;52.850;6.896;2022-11-23T02:58:12;17.10;;;13.40;;
59854;SDS011;45732;52.850;6.896;2022-11-23T03:00:38;17.60;;;12.75;;
59854;SDS011;45732;52.850;6.896;2022-11-23T03:03:04;14.93;;;11.80;;
59854;SDS011;45732;52.850;6.896;2022-11-23T03:05:30;18.42;;;12.55;;
59854;SDS011;45732;52.850;6.896;2022-11-23T03:07:56;15.75;;;12.43;;
59854;SDS011;45732;52.850;6.896;2022-11-23T03:10:22;15.23;;;12.07;;
59854;SDS011;45732;52.850;6.896;2022-11-23T03:12:47;16.35;;;11.88;;
59854;SDS011;45732;52.850;6.896;2022-11-23T03:15:13;14.95;;;11.10;;
59854;SDS011;45732;52.850;6.896;2022-11-23T03:17:39;16.10;;;11.05;;
59854;SDS011;45732;52.850;6.896;2022-11-23T03:20:05;14.75;;;11.27;;
59854;SDS011;45732;52.850;6.896;2022-11-23T03:22:31;17.08;;;11.85;;
59854;SDS011;45732;52.850;6.896;2022-11-23T03:24:57;14.23;;;10.48;;
59854;SDS011;45732;52.850;6.896;2022-11-23T03:27:23;15.52;;;11.55;;
59854;SDS011;45732;52.850;6.896;2022-11-23T03:29:49;16.08;;;11.60;;
59854;SDS011;45732;52.850;6.896;2022-11-23T03:32:14;15.40;;;11.65;;
59854;SDS011;45732;52.850;6.896;2022-11-23T03:34:40;15.93;;;11.32;;
59854;SDS011;45732;52.850;6.896;2022-11-23T03:37:06;17.58;;;11.70;;
59854;SDS011;45732;52.850;6.896;2022-11-23T03:39:31;16.60;;;11.00;;
59854;SDS011;45732;52.850;6.896;2022-11-23T03:41:57;15.35;;;10.93;;
59854;SDS011;45732;52.850;6.896;2022-11-23T03:44:23;17.02;;;12.25;;
59854;SDS011;45732;52.850;6.896;2022-11-23T03:46:48;15.57;;;11.32;;
59854;SDS011;45732;52.850;6.896;2022-11-23T03:49:16;19.02;;;12.48;;
59854;SDS011;45732;52.850;6.896;2022-11-23T03:51:42;16.58;;;11.43;;
59854;SDS011;45732;52.850;6.896;2022-11-23T03:54:08;17.10;;;11.85;;
59854;SDS011;45732;52.850;6.896;2022-11-23T03:56:34;16.52;;;11.65;;
59854;SDS011;45732;52.850;6.896;2022-11-23T03:58:59;16.35;;;11.43;;
59854;SDS011;45732;52.850;6.896;2022-11-23T04:01:25;18.35;;;13.18;;
59854;SDS011;45732;52.850;6.896;2022-11-23T04:03:51;17.60;;;12.57;;
59854;SDS011;45732;52.850;6.896;2022-11-23T04:06:16;17.85;;;11.68;;
59854;SDS011;45732;52.850;6.896;2022-11-23T04:08:42;18.70;;;12.23;;
59854;SDS011;45732;52.850;6.896;2022-11-23T04:11:08;19.00;;;13.18;;
59854;SDS011;45732;52.850;6.896;2022-11-23T04:13:34;18.73;;;13.35;;
59854;SDS011;45732;52.850;6.896;2022-11-23T04:15:59;22.85;;;14.40;;
59854;SDS011;45732;52.850;6.896;2022-11-23T04:18:25;22.25;;;13.40;;
59854;SDS011;45732;52.850;6.896;2022-11-23T04:20:51;22.10;;;14.18;;
59854;SDS011;45732;52.850;6.896;2022-11-23T04:23:16;21.65;;;14.65;;
59854;SDS011;45732;52.850;6.896;2022-11-23T04:25:44;21.13;;;14.45;;
59854;SDS011;45732;52.850;6.896;2022-11-23T04:28:10;19.85;;;14.95;;
59854;SDS011;45732;52.850;6.896;2022-11-23T04:30:36;23.52;;;15.00;;
59854;SDS011;45732;52.850;6.896;2022-11-23T04:33:02;20.75;;;14.07;;
59854;SDS011;45732;52.850;6.896;2022-11-23T04:35:27;20.98;;;14.93;;
59854;SDS011;45732;52.850;6.896;2022-11-23T04:37:53;22.00;;;14.18;;
59854;SDS011;45732;52.850;6.896;2022-11-23T04:40:18;19.00;;;13.88;;
59854;SDS011;45732;52.850;6.896;2022-11-23T04:42:44;23.15;;;14.23;;
59854;SDS011;45732;52.850;6.896;2022-11-23T04:45:10;23.67;;;15.30;;
59854;SDS011;45732;52.850;6.896;2022-11-23T04:47:36;21.83;;;13.45;;
59854;SDS011;45732;52.850;6.896;2022-11-23T04:50:01;23.65;;;14.55;;
59854;SDS011;45732;52.850;6.896;2022-11-23T04:52:27;20.38;;;13.43;;
59854;SDS011;45732;52.850;6.896;2022-11-23T04:54:53;24.05;;;15.05;;
59854;SDS011;45732;52.850;6.896;2022-11-23T04:57:18;27.45;;;14.77;;
59854;SDS011;45732;52.850;6.896;2022-11-23T04:59:44;21.80;;;14.30;;
59854;SDS011;45732;52.850;6.896;2022-11-23T05:02:10;23.35;;;14.55;;
59854;SDS011;45732;52.850;6.896;2022-11-23T05:04:36;21.05;;;14.23;;
59854;SDS011;45732;52.850;6.896;2022-11-23T05:07:01;20.52;;;13.57;;
59854;SDS011;45732;52.850;6.896;2022-11-23T05:09:27;26.83;;;16.10;;
59854;SDS011;45732;52.850;6.896;2022-11-23T05:11:53;24.95;;;15.32;;
59854;SDS011;45732;52.850;6.896;2022-11-23T05:14:19;18.92;;;12.88;;
59854;SDS011;45732;52.850;6.896;2022-11-23T05:16:44;22.02;;;13.73;;
59854;SDS011;45732;52.850;6.896;2022-11-23T05:19:10;20.92;;;12.90;;
59854;SDS011;45732;52.850;6.896;2022-11-23T05:21:36;21.50;;;14.40;;
59854;SDS011;45732;52.850;6.896;2022-11-23T05:24:02;24.05;;;14.75;;
59854;SDS011;45732;52.850;6.896;2022-11-23T05:26:27;25.08;;;13.55;;
59854;SDS011;45732;52.850;6.896;2022-11-23T05:28:53;23.25;;;13.80;;
59854;SDS011;45732;52.850;6.896;2022-11-23T05:31:19;22.60;;;12.40;;
59854;SDS011;45732;52.850;6.896;2022-11-23T05:33:45;20.40;;;12.10;;
59854;SDS011;45732;52.850;6.896;2022-11-23T05:36:10;27.48;;;21.20;;
59854;SDS011;45732;52.850;6.896;2022-11-23T05:38:38;20.00;;;11.30;;
59854;SDS011;45732;52.850;6.896;2022-11-23T05:41:04;22.67;;;15.45;;
59854;SDS011;45732;52.850;6.896;2022-11-23T05:43:30;21.15;;;11.98;;
59854;SDS011;45732;52.850;6.896;2022-11-23T05:45:59;20.45;;;11.43;;
59854;SDS011;45732;52.850;6.896;2022-11-23T05:48:25;17.38;;;9.98;;
59854;SDS011;45732;52.850;6.896;2022-11-23T05:50:51;16.90;;;9.77;;
59854;SDS011;45732;52.850;6.896;2022-11-23T05:53:17;17.85;;;10.75;;
59854;SDS011;45732;52.850;6.896;2022-11-23T05:55:43;21.05;;;10.18;;
59854;SDS011;45732;52.850;6.896;2022-11-23T05:58:09;18.13;;;9.85;;
59854;SDS011;45732;52.850;6.896;2022-11-23T06:00:35;21.08;;;12.48;;
59854;SDS011;45732;52.850;6.896;2022-11-23T06:03:01;21.55;;;15.50;;
59854;SDS011;45732;52.850;6.896;2022-11-23T06:05:27;15.35;;;9.02;;
59854;SDS011;45732;52.850;6.896;2022-11-23T06:07:53;16.10;;;8.88;;
59854;SDS011;45732;52.850;6.896;2022-11-23T06:10:19;19.20;;;9.38;;
59854;SDS011;45732;52.850;6.896;2022-11-23T06:12:45;15.77;;;9.00;;
59854;SDS011;45732;52.850;6.896;2022-11-23T06:15:11;14.35;;;8.20;;
59854;SDS011;45732;52.850;6.896;2022-11-23T06:17:36;19.52;;;12.60;;
59854;SDS011;45732;52.850;6.896;2022-11-23T06:20:05;14.48;;;8.30;;
59854;SDS011;45732;52.850;6.896;2022-11-23T06:22:32;18.70;;;8.20;;
59854;SDS011;45732;52.850;6.896;2022-11-23T06:24:57;15.38;;;9.27;;
59854;SDS011;45732;52.850;6.896;2022-11-23T06:27:23;26.48;;;20.98;;
59854;SDS011;45732;52.850;6.896;2022-11-23T06:29:49;16.95;;;8.27;;
59854;SDS011;45732;52.850;6.896;2022-11-23T06:32:14;16.10;;;7.05;;
59854;SDS011;45732;52.850;6.896;2022-11-23T06:34:40;16.10;;;6.57;;
59854;SDS011;45732;52.850;6.896;2022-11-23T06:37:06;16.58;;;6.97;;
59854;SDS011;45732;52.850;6.896;2022-11-23T06:39:32;16.13;;;6.80;;
59854;SDS011;45732;52.850;6.896;2022-11-23T06:41:57;17.40;;;11.27;;
59854;SDS011;45732;52.850;6.896;2022-11-23T06:44:23;15.88;;;6.80;;
59854;SDS011;45732;52.850;6.896;2022-11-23T06:46:49;17.05;;;7.03;;
59854;SDS011;45732;52.850;6.896;2022-11-23T06:49:14;17.92;;;7.28;;
59854;SDS011;45732;52.850;6.896;2022-11-23T06:51:43;14.30;;;9.02;;
59854;SDS011;45732;52.850;6.896;2022-11-23T06:54:10;15.20;;;6.85;;
59854;SDS011;45732;52.850;6.896;2022-11-23T06:56:36;16.13;;;10.57;;
59854;SDS011;45732;52.850;6.896;2022-11-23T06:59:02;16.15;;;6.47;;
59854;SDS011;45732;52.850;6.896;2022-11-23T07:01:27;16.42;;;6.78;;
59854;SDS011;45732;52.850;6.896;2022-11-23T07:03:53;13.68;;;5.90;;
59854;SDS011;45732;52.850;6.896;2022-11-23T07:06:19;14.23;;;6.50;;
59854;SDS011;45732;52.850;6.896;2022-11-23T07:08:45;15.10;;;6.32;;
59854;SDS011;45732;52.850;6.896;2022-11-23T07:11:12;16.25;;;6.72;;
59854;SDS011;45732;52.850;6.896;2022-11-23T07:13:37;16.75;;;7.00;;
59854;SDS011;45732;52.850;6.896;2022-11-23T07:16:03;17.27;;;6.65;;
59854;SDS011;45732;52.850;6.896;2022-11-23T07:18:30;14.18;;;6.93;;
59854;SDS011;45732;52.850;6.896;2022-11-23T07:20:56;14.30;;;6.30;;
59854;SDS011;45732;52.850;6.896;2022-11-23T07:23:23;16.17;;;7.15;;
59854;SDS011;45732;52.850;6.896;2022-11-23T07:25:48;15.38;;;6.63;;
59854;SDS011;45732;52.850;6.896;2022-11-23T07:28:14;12.80;;;6.80;;
59854;SDS011;45732;52.850;6.896;2022-11-23T07:30:40;13.10;;;7.07;;
59854;SDS011;45732;52.850;6.896;2022-11-23T07:33:07;16.73;;;6.68;;
59854;SDS011;45732;52.850;6.896;2022-11-23T07:35:34;14.80;;;7.00;;
59854;SDS011;45732;52.850;6.896;2022-11-23T07:38:01;16.17;;;6.65;;
59854;SDS011;45732;52.850;6.896;2022-11-23T07:40:27;16.80;;;6.70;;
59854;SDS011;45732;52.850;6.896;2022-11-23T07:42:57;14.48;;;7.18;;
59854;SDS011;45732;52.850;6.896;2022-11-23T07:45:24;17.58;;;7.15;;
59854;SDS011;45732;52.850;6.896;2022-11-23T07:47:56;18.10;;;7.15;;
59854;SDS011;45732;52.850;6.896;2022-11-23T07:52:49;11.82;;;6.10;;
59854;SDS011;45732;52.850;6.896;2022-11-23T07:55:14;14.45;;;5.82;;
59854;SDS011;45732;52.850;6.896;2022-11-23T07:57:40;13.00;;;5.95;;
59854;SDS011;45732;52.850;6.896;2022-11-23T08:00:06;13.60;;;5.95;;
59854;SDS011;45732;52.850;6.896;2022-11-23T08:02:32;18.08;;;7.22;;
59854;SDS011;45732;52.850;6.896;2022-11-23T08:04:58;14.80;;;6.38;;
59854;SDS011;45732;52.850;6.896;2022-11-23T08:07:23;12.65;;;5.72;;
59854;SDS011;45732;52.850;6.896;2022-11-23T08:09:49;14.60;;;5.80;;
59854;SDS011;45732;52.850;6.896;2022-11-23T08:12:14;15.82;;;5.82;;
59854;SDS011;45732;52.850;6.896;2022-11-23T08:14:40;13.07;;;5.78;;
59854;SDS011;45732;52.850;6.896;2022-11-23T08:17:06;14.32;;;6.10;;
59854;SDS011;45732;52.850;6.896;2022-11-23T08:19:32;17.58;;;6.72;;
59854;SDS011;45732;52.850;6.896;2022-11-23T08:21:58;16.75;;;6.63;;
59854;SDS011;45732;52.850;6.896;2022-11-23T08:24:24;15.38;;;6.38;;
59854;SDS011;45732;52.850;6.896;2022-11-23T08:26:49;15.00;;;6.05;;
59854;SDS011;45732;52.850;6.896;2022-11-23T08:29:15;13.25;;;6.07;;
59854;SDS011;45732;52.850;6.896;2022-11-23T08:31:41;13.38;;;5.93;;
59854;SDS011;45732;52.850;6.896;2022-11-23T08:34:07;17.65;;;6.18;;
59854;SDS011;45732;52.850;6.896;2022-11-23T08:36:32;18.52;;;6.30;;
59854;SDS011;45732;52.850;6.896;2022-11-23T08:38:58;16.02;;;5.68;;
59854;SDS011;45732;52.850;6.896;2022-11-23T08:41:24;16.48;;;6.22;;
59854;SDS011;45732;52.850;6.896;2022-11-23T08:43:49;15.88;;;6.00;;
59854;SDS011;45732;52.850;6.896;2022-11-23T08:46:15;19.70;;;6.43;;
59854;SDS011;45732;52.850;6.896;2022-11-23T08:48:41;18.88;;;7.00;;
59854;SDS011;45732;52.850;6.896;2022-11-23T08:51:07;19.38;;;6.55;;
59854;SDS011;45732;52.850;6.896;2022-11-23T08:53:33;18.27;;;6.32;;
59854;SDS011;45732;52.850;6.896;2022-11-23T08:56:00;15.02;;;6.07;;
59854;SDS011;45732;52.850;6.896;2022-11-23T08:58:26;18.02;;;5.68;;
59854;SDS011;45732;52.850;6.896;2022-11-23T09:00:52;17.42;;;6.07;;
59854;SDS011;45732;52.850;6.896;2022-11-23T09:03:17;13.60;;;5.68;;
59854;SDS011;45732;52.850;6.896;2022-11-23T09:05:43;15.38;;;5.95;;
59854;SDS011;45732;52.850;6.896;2022-11-23T09:08:09;16.75;;;6.03;;
59854;SDS011;45732;52.850;6.896;2022-11-23T09:10:35;17.85;;;5.50;;
59854;SDS011;45732;52.850;6.896;2022-11-23T09:13:01;19.45;;;5.63;;
59854;SDS011;45732;52.850;6.896;2022-11-23T09:15:27;15.65;;;5.25;;
59854;SDS011;45732;52.850;6.896;2022-11-23T09:17:53;15.90;;;5.10;;
59854;SDS011;45732;52.850;6.896;2022-11-23T09:20:20;16.38;;;5.25;;
59854;SDS011;45732;52.850;6.896;2022-11-23T09:22:49;18.50;;;5.25;;
59854;SDS011;45732;52.850;6.896;2022-11-23T09:25:18;15.23;;;4.70;;
59854;SDS011;45732;52.850;6.896;2022-11-23T09:27:45;15.55;;;4.95;;
59854;SDS011;45732;52.850;6.896;2022-11-23T09:30:11;14.23;;;4.72;;
59854;SDS011;45732;52.850;6.896;2022-11-23T09:32:37;14.88;;;4.57;;
59854;SDS011;45732;52.850;6.896;2022-11-23T09:35:03;14.48;;;4.43;;
59854;SDS011;45732;52.850;6.896;2022-11-23T09:37:29;15.18;;;4.70;;
59854;SDS011;45732;52.850;6.896;2022-11-23T09:39:55;12.63;;;4.05;;
59854;SDS011;45732;52.850;6.896;2022-11-23T09:51:16;13.13;;;3.95;;
59854;SDS011;45732;52.850;6.896;2022-11-23T09:53:45;15.35;;;4.43;;
59854;SDS011;45732;52.850;6.896;2022-11-23T09:56:27;14.18;;;4.10;;
59854;SDS011;45732;52.850;6.896;2022-11-23T09:59:00;15.38;;;4.18;;
59854;SDS011;45732;52.850;6.896;2022-11-23T10:03:55;13.27;;;3.92;;
59854;SDS011;45732;52.850;6.896;2022-11-23T10:06:28;14.98;;;4.00;;
59854;SDS011;45732;52.850;6.896;2022-11-23T10:14:59;17.03;;;4.20;;
59854;SDS011;45732;52.850;6.896;2022-11-23T10:23:28;16.23;;;4.07;;
59854;SDS011;45732;52.850;6.896;2022-11-23T10:26:22;14.38;;;4.22;;
59854;SDS011;45732;52.850;6.896;2022-11-23T10:28:54;16.35;;;4.18;;
59854;SDS011;45732;52.850;6.896;2022-11-23T10:31:22;15.07;;;3.38;;
59854;SDS011;45732;52.850;6.896;2022-11-23T10:36:39;16.92;;;3.42;;
59854;SDS011;45732;52.850;6.896;2022-11-23T10:39:24;15.40;;;3.60;;
59854;SDS011;45732;52.850;6.896;2022-11-23T10:41:52;16.83;;;3.97;;
59854;SDS011;45732;52.850;6.896;2022-11-23T10:46:57;19.67;;;4.43;;
59854;SDS011;45732;52.850;6.896;2022-11-23T10:49:27;14.98;;;3.83;;
59854;SDS011;45732;52.850;6.896;2022-11-23T10:51:58;17.40;;;4.05;;
59854;SDS011;45732;52.850;6.896;2022-11-23T10:57:01;20.50;;;4.43;;
59854;SDS011;45732;52.850;6.896;2022-11-23T10:59:48;16.10;;;3.95;;
59854;SDS011;45732;52.850;6.896;2022-11-23T11:05:38;16.35;;;3.47;;
59854;SDS011;45732;52.850;6.896;2022-11-23T11:07:59;13.68;;;3.60;;
59854;SDS011;45732;52.850;6.896;2022-11-23T11:15:54;15.98;;;3.20;;
59854;SDS011;45732;52.850;6.896;2022-11-23T11:18:24;14.13;;;3.20;;
59854;SDS011;45732;52.850;6.896;2022-11-23T11:20:57;11.80;;;2.75;;
59854;SDS011;45732;52.850;6.896;2022-11-23T11:23:30;17.27;;;3.70;;
59854;SDS011;45732;52.850;6.896;2022-11-23T11:26:02;17.20;;;3.40;;
59854;SDS011;45732;52.850;6.896;2022-11-23T11:28:35;19.05;;;2.67;;
59854;SDS011;45732;52.850;6.896;2022-11-23T11:34:09;14.05;;;3.00;;
59854;SDS011;45732;52.850;6.896;2022-11-23T11:36:59;13.25;;;2.70;;
59854;SDS011;45732;52.850;6.896;2022-11-23T11:39:57;13.23;;;2.60;;
59854;SDS011;45732;52.850;6.896;2022-11-23T11:42:41;11.02;;;2.40;;
59854;SDS011;45732;52.850;6.896;2022-11-23T11:45:16;12.38;;;3.10;;
59854;SDS011;45732;52.850;6.896;2022-11-23T11:48:12;13.13;;;3.10;;
59854;SDS011;45732;52.850;6.896;2022-11-23T11:50:52;14.63;;;3.72;;
59854;SDS011;45732;52.850;6.896;2022-11-23T11:53:32;15.00;;;3.33;;
59854;SDS011;45732;52.850;6.896;2022-11-23T11:56:10;15.93;;;3.30;;
59854;SDS011;45732;52.850;6.896;2022-11-23T11:58:57;17.45;;;3.20;;
59854;SDS011;45732;52.850;6.896;2022-11-23T12:04:25;14.50;;;2.95;;
59854;SDS011;45732;52.850;6.896;2022-11-23T12:06:53;14.88;;;2.72;;
59854;SDS011;45732;52.850;6.896;2022-11-23T12:09:30;16.15;;;3.40;;
59854;SDS011;45732;52.850;6.896;2022-11-23T12:12:01;11.10;;;2.90;;
59854;SDS011;45732;52.850;6.896;2022-11-23T12:14:29;10.10;;;2.88;;
59854;SDS011;45732;52.850;6.896;2022-11-23T12:19:38;16.42;;;4.43;;
59854;SDS011;45732;52.850;6.896;2022-11-23T12:25:14;9.43;;;2.67;;
59854;SDS011;45732;52.850;6.896;2022-11-23T12:33:40;9.77;;;2.78;;
59854;SDS011;45732;52.850;6.896;2022-11-23T12:41:37;11.35;;;2.80;;
59854;SDS011;45732;52.850;6.896;2022-11-23T12:49:53;14.88;;;2.83;;
59854;SDS011;45732;52.850;6.896;2022-11-23T12:55:17;13.05;;;2.60;;
59854;SDS011;45732;52.850;6.896;2022-11-23T13:00:35;12.88;;;2.65;;
59854;SDS011;45732;52.850;6.896;2022-11-23T13:06:30;11.35;;;2.10;;
59854;SDS011;45732;52.850;6.896;2022-11-23T13:14:47;12.25;;;2.50;;
59854;SDS011;45732;52.850;6.896;2022-11-23T13:22:46;8.88;;;2.30;;
59854;SDS011;45732;52.850;6.896;2022-11-23T13:25:17;10.20;;;2.13;;
59854;SDS011;45732;52.850;6.896;2022-11-23T13:27:54;11.05;;;2.35;;
59854;SDS011;45732;52.850;6.896;2022-11-23T13:30:28;11.73;;;2.38;;
59854;SDS011;45732;52.850;6.896;2022-11-23T13:35:48;10.30;;;2.63;;
59854;SDS011;45732;52.850;6.896;2022-11-23T13:38:21;9.15;;;2.10;;
59854;SDS011;45732;52.850;6.896;2022-11-23T13:40:49;9.63;;;2.50;;
59854;SDS011;45732;52.850;6.896;2022-11-23T13:51:21;11.05;;;3.15;;
59854;SDS011;45732;52.850;6.896;2022-11-23T13:53:58;11.38;;;3.50;;
59854;SDS011;45732;52.850;6.896;2022-11-23T13:56:34;12.50;;;3.50;;
59854;SDS011;45732;52.850;6.896;2022-11-23T14:01:59;15.82;;;3.38;;
59854;SDS011;45732;52.850;6.896;2022-11-23T14:04:38;12.82;;;3.03;;
59854;SDS011;45732;52.850;6.896;2022-11-23T14:09:49;11.35;;;2.78;;
59854;SDS011;45732;52.850;6.896;2022-11-23T14:12:29;14.32;;;3.50;;
59854;SDS011;45732;52.850;6.896;2022-11-23T14:15:15;9.73;;;2.58;;
59854;SDS011;45732;52.850;6.896;2022-11-23T14:23:30;11.55;;;2.78;;
59854;SDS011;45732;52.850;6.896;2022-11-23T14:29:04;12.20;;;3.88;;
59854;SDS011;45732;52.850;6.896;2022-11-23T14:31:50;13.60;;;2.85;;
59854;SDS011;45732;52.850;6.896;2022-11-23T14:34:28;10.85;;;2.90;;
59854;SDS011;45732;52.850;6.896;2022-11-23T14:42:12;10.10;;;2.50;;
59854;SDS011;45732;52.850;6.896;2022-11-23T14:44:41;11.40;;;2.38;;
59854;SDS011;45732;52.850;6.896;2022-11-23T14:47:08;11.05;;;2.30;;
59854;SDS011;45732;52.850;6.896;2022-11-23T14:49:35;9.75;;;2.50;;
59854;SDS011;45732;52.850;6.896;2022-11-23T14:52:12;12.45;;;2.20;;
59854;SDS011;45732;52.850;6.896;2022-11-23T14:54:47;9.98;;;2.65;;
59854;SDS011;45732;52.850;6.896;2022-11-23T14:57:14;7.75;;;2.17;;
59854;SDS011;45732;52.850;6.896;2022-11-23T14:59:40;10.95;;;2.88;;
59854;SDS011;45732;52.850;6.896;2022-11-23T15:02:22;8.65;;;2.70;;
59854;SDS011;45732;52.850;6.896;2022-11-23T15:07:21;11.18;;;2.53;;
59854;SDS011;45732;52.850;6.896;2022-11-23T15:12:24;9.48;;;3.40;;
59854;SDS011;45732;52.850;6.896;2022-11-23T15:14:52;10.27;;;2.58;;
59854;SDS011;45732;52.850;6.896;2022-11-23T15:17:21;11.52;;;3.70;;
59854;SDS011;45732;52.850;6.896;2022-11-23T15:19:57;11.75;;;4.70;;
59854;SDS011;45732;52.850;6.896;2022-11-23T15:22:24;10.60;;;3.00;;
59854;SDS011;45732;52.850;6.896;2022-11-23T15:24:51;10.63;;;2.78;;
59854;SDS011;45732;52.850;6.896;2022-11-23T15:27:22;8.18;;;3.35;;
59854;SDS011;45732;52.850;6.896;2022-11-23T15:29:53;8.90;;;2.53;;
59854;SDS011;45732;52.850;6.896;2022-11-23T15:34:53;13.90;;;3.15;;
59854;SDS011;45732;52.850;6.896;2022-11-23T15:37:22;11.38;;;2.88;;
59854;SDS011;45732;52.850;6.896;2022-11-23T15:39:49;12.40;;;3.78;;
59854;SDS011;45732;52.850;6.896;2022-11-23T15:42:17;7.65;;;2.25;;
59854;SDS011;45732;52.850;6.896;2022-11-23T15:44:45;10.20;;;2.60;;
59854;SDS011;45732;52.850;6.896;2022-11-23T15:47:32;11.15;;;3.67;;
59854;SDS011;45732;52.850;6.896;2022-11-23T15:50:01;11.30;;;3.42;;
59854;SDS011;45732;52.850;6.896;2022-11-23T15:52:33;15.25;;;4.32;;
59854;SDS011;45732;52.850;6.896;2022-11-23T15:55:02;13.25;;;4.57;;
59854;SDS011;45732;52.850;6.896;2022-11-23T15:57:29;8.93;;;3.05;;
59854;SDS011;45732;52.850;6.896;2022-11-23T15:59:57;9.90;;;3.40;;
59854;SDS011;45732;52.850;6.896;2022-11-23T16:02:26;8.35;;;2.80;;
59854;SDS011;45732;52.850;6.896;2022-11-23T16:05:08;9.95;;;4.03;;
59854;SDS011;45732;52.850;6.896;2022-11-23T16:10:25;9.07;;;3.13;;
59854;SDS011;45732;52.850;6.896;2022-11-23T16:12:58;14.50;;;3.40;;
59854;SDS011;45732;52.850;6.896;2022-11-23T16:20:41;9.63;;;2.72;;
59854;SDS011;45732;52.850;6.896;2022-11-23T16:23:10;9.40;;;3.00;;
59854;SDS011;45732;52.850;6.896;2022-11-23T16:25:42;10.15;;;3.15;;
59854;SDS011;45732;52.850;6.896;2022-11-23T16:28:16;10.18;;;3.25;;
59854;SDS011;45732;52.850;6.896;2022-11-23T16:30:47;14.90;;;4.40;;
59854;SDS011;45732;52.850;6.896;2022-11-23T16:33:14;8.60;;;2.90;;
59854;SDS011;45732;52.850;6.896;2022-11-23T16:35:42;10.00;;;2.63;;
59854;SDS011;45732;52.850;6.896;2022-11-23T16:38:07;10.18;;;2.80;;
59854;SDS011;45732;52.850;6.896;2022-11-23T16:40:33;10.50;;;2.97;;
59854;SDS011;45732;52.850;6.896;2022-11-23T16:42:59;9.10;;;2.88;;
59854;SDS011;45732;52.850;6.896;2022-11-23T16:45:25;9.65;;;3.35;;
59854;SDS011;45732;52.850;6.896;2022-11-23T16:47:55;10.43;;;3.60;;
59854;SDS011;45732;52.850;6.896;2022-11-23T16:50:26;9.65;;;3.80;;
59854;SDS011;45732;52.850;6.896;2022-11-23T16:52:54;10.18;;;3.00;;
59854;SDS011;45732;52.850;6.896;2022-11-23T16:55:19;9.93;;;2.97;;
59854;SDS011;45732;52.850;6.896;2022-11-23T16:57:45;8.60;;;3.33;;
59854;SDS011;45732;52.850;6.896;2022-11-23T17:00:16;8.48;;;2.50;;
59854;SDS011;45732;52.850;6.896;2022-11-23T17:02:44;9.38;;;2.55;;
59854;SDS011;45732;52.850;6.896;2022-11-23T17:05:15;10.35;;;2.53;;
59854;SDS011;45732;52.850;6.896;2022-11-23T17:07:42;12.23;;;2.58;;